Time;durP1;ratioP1;P1;durP2;ratioP2;P2;SDS_P1;SDS_P2;PMS_P1;PMS_P2;Temp;Humidity;BMP_temperature;BMP_pressure;BME280_temperature;BME280_humidity;BME280_pressure;Samples;Min_cycle;Max_cycle;Signal;HPM_P1;HPM_P2
2023/08/20 00:00:40;;;;;;;11.85;9.65;;;;;;;22.08;100.00;98942.16;4174217;28;20051;-74
2023/08/20 00:02:42;;;;;;;12.65;10.02;;;;;;;22.07;100.00;98932.94;4173813;28;20052;-74
2023/08/20 00:04:45;;;;;;;13.82;10.52;;;;;;;22.04;100.00;98930.19;4174347;28;20521;-74
2023/08/20 00:06:46;;;;;;;14.23;10.30;;;;;;;22.03;100.00;98931.44;4173786;28;20480;-74
2023/08/20 00:08:47;;;;;;;12.88;10.93;;;;;;;22.06;100.00;98931.31;4174119;28;20048;-74
2023/08/20 00:10:47;;;;;;;12.15;10.70;;;;;;;22.02;100.00;98939.09;4173726;28;20584;-74
2023/08/20 00:12:47;;;;;;;13.68;10.57;;;;;;;21.98;100.00;98932.75;4173126;28;20529;-74
2023/08/20 00:14:58;;;;;;;14.70;10.20;;;;;;;21.96;100.00;98934.44;4173902;28;20067;-74
2023/08/20 00:16:58;;;;;;;13.57;11.13;;;;;;;21.94;100.00;98931.28;4173198;28;20065;-74
2023/08/20 00:18:59;;;;;;;11.15;9.85;;;;;;;21.95;100.00;98932.88;4174329;28;20052;-74
2023/08/20 00:21:00;;;;;;;13.40;10.43;;;;;;;21.95;100.00;98932.88;4174282;28;20052;-74
2023/08/20 00:23:01;;;;;;;11.95;10.13;;;;;;;21.93;100.00;98935.31;4173581;28;20037;-74
2023/08/20 00:25:05;;;;;;;11.35;9.95;;;;;;;21.92;100.00;98934.53;4173786;28;20086;-74
2023/08/20 00:27:06;;;;;;;17.38;11.10;;;;;;;21.88;100.00;98939.47;4172876;28;20175;-74
2023/08/20 00:29:06;;;;;;;11.98;10.77;;;;;;;21.85;100.00;98943.97;4174376;28;20845;-74
2023/08/20 00:31:07;;;;;;;14.30;11.23;;;;;;;21.81;100.00;98940.44;4174318;28;20125;-74
2023/08/20 00:33:07;;;;;;;15.63;10.57;;;;;;;21.80;100.00;98944.50;4173280;28;20052;-74
2023/08/20 00:35:07;;;;;;;13.00;10.35;;;;;;;21.82;100.00;98944.84;4174063;28;20048;-74
2023/08/20 00:37:08;;;;;;;16.60;11.07;;;;;;;21.83;100.00;98940.78;4174315;28;20045;-74
2023/08/20 00:39:08;;;;;;;13.90;11.40;;;;;;;21.83;100.00;98940.78;4173732;28;20136;-74
2023/08/20 00:41:08;;;;;;;13.40;11.15;;;;;;;21.79;100.00;98936.50;4171688;28;20053;-74
2023/08/20 00:43:09;;;;;;;14.00;11.25;;;;;;;21.80;100.00;98947.31;4172296;28;20052;-74
2023/08/20 00:45:09;;;;;;;12.13;10.90;;;;;;;21.77;100.00;98939.78;4174305;28;20500;-74
2023/08/20 00:47:11;;;;;;;12.30;11.00;;;;;;;21.77;100.00;98947.44;4174145;28;20064;-74
2023/08/20 00:49:11;;;;;;;15.63;12.27;;;;;;;21.78;100.00;98946.19;4174341;28;20091;-74
2023/08/20 00:51:12;;;;;;;15.55;11.68;;;;;;;21.77;100.00;98945.41;4168909;28;20049;-74
2023/08/20 00:53:14;;;;;;;13.80;12.07;;;;;;;21.74;100.00;98939.84;4171080;28;20068;-74
2023/08/20 00:55:14;;;;;;;13.82;11.95;;;;;;;21.75;100.00;98949.88;4171486;28;20542;-74
2023/08/20 00:57:17;;;;;;;14.88;12.20;;;;;;;21.72;100.00;98945.94;4171578;28;20049;-74
2023/08/20 00:59:18;;;;;;;13.48;11.10;;;;;;;21.72;100.00;98945.13;4171133;28;20214;-74
2023/08/20 01:01:18;;;;;;;14.93;11.23;;;;;;;21.71;100.00;98946.38;4171387;28;20041;-74
2023/08/20 01:03:18;;;;;;;18.83;11.20;;;;;;;21.71;100.00;98947.16;4171988;28;20068;-74
2023/08/20 01:05:19;;;;;;;14.45;11.05;;;;;;;21.72;100.00;98947.94;4173528;28;20091;-74
2023/08/20 01:07:56;;;;;;;13.15;10.82;;;;;;;21.71;100.00;98955.59;4173159;28;20493;-74
2023/08/20 01:10:09;;;;;;;14.65;10.25;;;;;;;21.69;100.00;98957.28;4172709;28;20145;-74
2023/08/20 01:12:10;;;;;;;;;;;;;;;21.66;100.00;98956.13;4173148;28;20072;-74
2023/08/20 01:14:17;;;;;;;14.77;11.07;;;;;;;21.63;100.00;98951.38;4173324;28;20427;-74
2023/08/20 01:16:17;;;;;;;13.10;10.48;;;;;;;21.59;100.00;98940.19;4173542;28;20037;-73
2023/08/20 01:18:18;;;;;;;13.68;10.48;;;;;;;21.57;100.00;98941.88;4173086;28;20032;-74
2023/08/20 01:20:20;;;;;;;11.80;10.38;;;;;;;21.57;100.00;98947.53;4173283;28;20503;-74
2023/08/20 01:22:26;;;;;;;15.50;10.02;;;;;;;21.56;100.00;98948.75;4172920;28;20037;-74
2023/08/20 01:24:51;;;;;;;11.32;9.48;;;;;;;21.54;100.00;98943.56;4173300;28;20347;-74
2023/08/20 01:27:07;;;;;;;11.65;9.73;;;;;;;21.54;100.00;98942.78;4172630;28;20518;-74
2023/08/20 01:29:08;;;;;;;10.60;9.45;;;;;;;21.52;100.00;98939.63;4173234;28;20048;-74
2023/08/20 01:31:10;;;;;;;13.48;9.10;;;;;;;21.50;100.00;98934.41;4173019;28;20057;-74
2023/08/20 01:33:12;;;;;;;9.80;8.80;;;;;;;21.46;100.00;98932.94;4172928;28;20052;-74
2023/08/20 01:35:16;;;;;;;10.48;9.15;;;;;;;21.42;100.00;98935.03;4172918;28;20250;-74
2023/08/20 01:37:16;;;;;;;11.25;10.13;;;;;;;21.41;100.00;98944.72;4173220;28;20065;-74
2023/08/20 01:39:18;;;;;;;14.45;10.25;;;;;;;21.36;100.00;98942.44;4172584;28;20632;-74
2023/08/20 01:41:18;;;;;;;13.77;11.32;;;;;;;21.28;100.00;98941.81;4172914;28;20053;-74
2023/08/20 01:43:19;;;;;;;10.95;9.85;;;;;;;21.28;100.00;98936.97;4172243;28;20037;-74
2023/08/20 01:45:19;;;;;;;11.82;9.98;;;;;;;21.27;100.00;98946.66;4172484;28;20536;-74
2023/08/20 01:47:19;;;;;;;14.80;9.27;;;;;;;21.23;100.00;98948.72;4171975;28;20049;-74
2023/08/20 01:49:21;;;;;;;11.80;9.40;;;;;;;21.23;100.00;98956.38;4172547;28;20084;-74
2023/08/20 01:51:21;;;;;;;9.73;8.60;;;;;;;21.21;100.00;98954.00;4172984;28;20477;-74
2023/08/20 01:53:22;;;;;;;10.70;8.25;;;;;;;21.17;100.00;98955.31;4171775;28;20041;-74
2023/08/20 01:55:22;;;;;;;10.10;8.63;;;;;;;21.15;100.00;98954.97;4172096;28;20053;-74
2023/08/20 01:57:22;;;;;;;12.57;9.60;;;;;;;21.13;100.00;98955.41;4171682;28;20136;-74
2023/08/20 01:59:23;;;;;;;12.80;9.85;;;;;;;21.07;100.00;98956.34;4172314;28;20190;-74
2023/08/20 02:01:24;;;;;;;12.75;10.63;;;;;;;21.07;100.00;98959.16;4172878;28;20127;-74
2023/08/20 02:03:25;;;;;;;11.10;9.38;;;;;;;21.00;100.00;98962.94;4171249;28;20493;-74
2023/08/20 02:05:25;;;;;;;12.63;9.73;;;;;;;21.00;100.00;98960.13;4172010;28;20080;-74
2023/08/20 02:07:26;;;;;;;13.32;10.18;;;;;;;20.96;100.00;98960.22;4172082;28;20488;-74
2023/08/20 02:09:26;;;;;;;11.13;9.70;;;;;;;20.97;100.00;98955.38;4172086;28;20515;-73
2023/08/20 02:11:26;;;;;;;10.68;8.88;;;;;;;20.97;100.00;98963.81;4172212;28;20542;-74
2023/08/20 02:13:27;;;;;;;10.30;9.20;;;;;;;20.98;100.00;98962.59;4172126;28;20037;-74
2023/08/20 02:15:27;;;;;;;19.08;10.40;;;;;;;20.97;100.00;98966.63;4172520;28;20098;-74
2023/08/20 02:17:27;;;;;;;13.63;9.57;;;;;;;20.96;100.00;98965.03;4172510;28;20053;-74
2023/08/20 02:19:28;;;;;;;12.60;9.77;;;;;;;20.95;100.00;98964.25;4172545;28;20041;-74
2023/08/20 02:21:29;;;;;;;11.93;9.50;;;;;;;20.94;100.00;98961.88;4172307;28;20049;-74
2023/08/20 02:23:29;;;;;;;12.23;10.07;;;;;;;20.91;100.00;98962.75;4171370;28;20037;-74
2023/08/20 02:25:29;;;;;;;14.00;9.68;;;;;;;20.87;100.00;98974.09;4172023;28;20045;-74
2023/08/20 02:27:30;;;;;;;14.35;10.35;;;;;;;20.83;100.00;98961.31;4172731;28;20060;-74
2023/08/20 02:29:30;;;;;;;14.60;11.38;;;;;;;20.81;100.00;98966.59;4171991;28;20048;-74
2023/08/20 02:31:31;;;;;;;14.18;10.93;;;;;;;20.77;100.00;98969.50;4166551;28;20127;-74
2023/08/20 02:33:31;;;;;;;14.65;10.93;;;;;;;20.76;100.00;98971.47;4169961;28;20048;-74
2023/08/20 02:35:32;;;;;;;14.52;11.02;;;;;;;20.78;100.00;98959.03;4172168;28;20125;-74
2023/08/20 02:37:32;;;;;;;10.95;9.85;;;;;;;20.79;100.00;98971.88;4172261;28;20106;-74
2023/08/20 02:39:32;;;;;;;15.57;10.07;;;;;;;20.82;100.00;98971.78;4171664;28;20048;-74
2023/08/20 02:41:36;;;;;;;10.73;9.60;;;;;;;20.82;100.00;98973.78;4172423;28;20122;-74
2023/08/20 02:43:37;;;;;;;12.38;9.88;;;;;;;20.79;100.00;98977.50;4170978;28;20072;-74
2023/08/20 02:45:42;;;;;;;10.98;9.07;;;;;;;20.76;100.00;98973.50;4173104;28;20141;-74
2023/08/20 02:47:42;;;;;;;13.15;9.52;;;;;;;20.75;100.00;98971.94;4172224;28;20045;-74
2023/08/20 02:49:42;;;;;;;13.10;9.23;;;;;;;20.65;100.00;98973.75;4172258;28;20075;-74
2023/08/20 02:51:43;;;;;;;14.63;9.95;;;;;;;20.63;100.00;98976.19;4172254;28;20476;-74
2023/08/20 02:53:43;;;;;;;11.98;10.45;;;;;;;20.58;100.00;98970.28;4170912;28;20493;-74
2023/08/20 02:55:44;;;;;;;15.55;9.82;;;;;;;20.54;100.00;98966.78;4172400;28;20041;-74
2023/08/20 02:57:44;;;;;;;10.88;9.75;;;;;;;20.50;100.00;98964.03;4172497;28;20171;-74
2023/08/20 02:59:44;;;;;;;11.40;9.80;;;;;;;20.46;100.00;98968.94;4171972;28;20077;-74
2023/08/20 03:01:45;;;;;;;12.02;9.25;;;;;;;20.43;100.00;98976.19;4172281;28;20118;-74
2023/08/20 03:03:45;;;;;;;13.40;10.68;;;;;;;20.42;100.00;98976.59;4171615;28;20057;-74
2023/08/20 03:05:45;;;;;;;12.55;9.95;;;;;;;20.36;100.00;98970.72;4172165;28;20046;-74
2023/08/20 03:07:46;;;;;;;12.25;10.27;;;;;;;20.33;100.00;98971.56;4171978;28;20041;-74
2023/08/20 03:09:46;;;;;;;15.70;9.82;;;;;;;20.32;100.00;98963.56;4172336;28;20090;-74
2023/08/20 03:11:46;;;;;;;16.17;10.00;;;;;;;20.31;100.00;98965.59;4171820;28;20065;-74
2023/08/20 03:13:46;;;;;;;12.55;9.55;;;;;;;20.30;100.00;98964.00;4171995;28;20079;-74
2023/08/20 03:15:47;;;;;;;11.02;9.00;;;;;;;20.28;100.00;98972.09;4175428;28;20119;-73
2023/08/20 03:17:47;;;;;;;12.70;9.95;;;;;;;20.26;100.00;98968.09;4175289;28;20137;-74
2023/08/20 03:19:58;;;;;;;11.70;10.50;;;;;;;20.24;100.00;98964.94;4175382;28;20068;-74
2023/08/20 03:21:59;;;;;;;11.27;9.90;;;;;;;20.22;100.00;98982.22;4174658;28;20543;-74
2023/08/20 03:23:59;;;;;;;11.35;10.02;;;;;;;20.20;100.00;98979.06;4174784;28;20145;-74
2023/08/20 03:25:59;;;;;;;14.32;11.52;;;;;;;20.18;100.00;98984.28;4173721;28;20103;-74
2023/08/20 03:28:00;;;;;;;16.42;11.15;;;;;;;20.18;100.00;98985.09;4175404;28;20064;-74
2023/08/20 03:30:01;;;;;;;14.07;11.07;;;;;;;20.18;100.00;98971.03;4175153;28;20162;-74
2023/08/20 03:32:02;;;;;;;13.48;11.15;;;;;;;20.22;100.00;98978.63;4173311;28;20453;-74
2023/08/20 03:34:02;;;;;;;16.13;10.88;;;;;;;20.22;100.00;98978.63;4174518;28;20068;-74
2023/08/20 03:36:03;;;;;;;12.35;10.75;;;;;;;20.24;100.00;98981.78;4174636;28;20053;-74
2023/08/20 03:38:03;;;;;;;16.13;9.95;;;;;;;20.22;100.00;98975.81;4174375;28;20033;-74
2023/08/20 03:40:04;;;;;;;13.52;9.38;;;;;;;20.23;100.00;98971.78;4175153;28;20028;-74
2023/08/20 03:42:05;;;;;;;15.20;9.77;;;;;;;20.23;100.00;98975.38;4174678;28;20099;-74
2023/08/20 03:44:05;;;;;;;15.77;10.05;;;;;;;20.23;100.00;98980.22;4174966;28;20056;-74
2023/08/20 03:46:05;;;;;;;12.38;9.65;;;;;;;20.18;100.00;98975.88;4174010;28;20051;-74
2023/08/20 03:48:06;;;;;;;15.00;10.00;;;;;;;20.17;100.00;98989.13;4175046;28;20025;-74
2023/08/20 03:50:06;;;;;;;15.15;9.75;;;;;;;20.15;100.00;98993.59;4174796;28;20035;-74
2023/08/20 03:52:07;;;;;;;13.65;9.88;;;;;;;20.13;100.00;98991.22;4165074;28;20386;-74
2023/08/20 03:54:07;;;;;;;14.77;9.55;;;;;;;20.13;100.00;98984.81;4167633;28;20725;-74
2023/08/20 03:56:07;;;;;;;11.65;9.70;;;;;;;20.14;100.00;98984.38;4170706;28;20033;-74
2023/08/20 03:58:08;;;;;;;11.55;10.10;;;;;;;20.10;100.00;98989.25;4170950;28;20119;-74
2023/08/20 04:00:09;;;;;;;12.07;10.57;;;;;;;20.06;100.00;98994.16;4174050;28;20060;-74
2023/08/20 04:02:09;;;;;;;14.20;10.73;;;;;;;20.03;100.00;98997.03;4173690;28;20037;-74
2023/08/20 04:04:10;;;;;;;11.27;9.38;;;;;;;20.00;100.00;98993.06;4173580;28;20071;-74
2023/08/20 04:06:10;;;;;;;11.70;10.23;;;;;;;19.99;100.00;98991.47;4171807;28;20057;-74
2023/08/20 04:08:10;;;;;;;15.18;10.80;;;;;;;20.00;100.00;98997.88;4163476;28;20274;-74
2023/08/20 04:10:11;;;;;;;12.18;10.48;;;;;;;20.00;100.00;98990.25;4172393;28;20086;-74
2023/08/20 04:12:11;;;;;;;12.95;10.18;;;;;;;20.02;100.00;98992.63;4172810;28;20175;-74
2023/08/20 04:14:11;;;;;;;11.18;10.02;;;;;;;20.00;100.00;98989.47;4173091;28;20142;-74
2023/08/20 04:16:13;;;;;;;11.80;10.50;;;;;;;19.95;100.00;98998.41;4174420;28;20373;-74
2023/08/20 04:18:13;;;;;;;13.95;10.95;;;;;;;19.89;100.00;98987.66;4173274;28;20094;-74
2023/08/20 04:20:14;;;;;;;15.73;10.43;;;;;;;19.88;100.00;98996.50;4174187;28;20476;-74
2023/08/20 04:22:15;;;;;;;13.30;9.82;;;;;;;19.88;100.00;98988.88;4174567;28;20527;-74
2023/08/20 04:24:15;;;;;;;11.05;9.85;;;;;;;19.87;100.00;98986.50;4173835;28;20519;-74
2023/08/20 04:26:15;;;;;;;12.75;10.30;;;;;;;19.86;100.00;98993.34;4173952;28;20028;-74
2023/08/20 04:28:16;;;;;;;14.32;9.80;;;;;;;19.81;100.00;98994.59;4174606;28;20040;-74
2023/08/20 04:30:16;;;;;;;14.23;9.30;;;;;;;19.80;100.00;98995.03;4174268;28;20106;-74
2023/08/20 04:32:17;;;;;;;12.48;9.98;;;;;;;19.78;100.00;98991.88;4174049;28;20033;-74
2023/08/20 04:34:17;;;;;;;14.48;10.02;;;;;;;19.79;100.00;98990.66;4173428;28;20037;-74
2023/08/20 04:36:17;;;;;;;11.30;8.88;;;;;;;19.80;100.00;98992.22;4173739;28;20068;-74
2023/08/20 04:38:18;;;;;;;12.52;10.45;;;;;;;19.80;100.00;98992.22;4173883;28;20041;-74
2023/08/20 04:40:18;;;;;;;12.07;10.10;;;;;;;19.82;100.00;98987.78;4174242;28;20044;-74
2023/08/20 04:42:19;;;;;;;10.15;9.05;;;;;;;19.79;100.00;98990.66;4173736;28;20051;-74
2023/08/20 04:44:19;;;;;;;13.15;10.45;;;;;;;19.74;100.00;98986.31;4172939;28;20075;-74
2023/08/20 04:46:20;;;;;;;11.80;10.15;;;;;;;19.74;100.00;98994.72;4173681;28;20208;-74
2023/08/20 04:48:21;;;;;;;11.18;10.07;;;;;;;19.74;100.00;98996.75;4174103;28;20146;-74
2023/08/20 04:50:21;;;;;;;13.18;10.43;;;;;;;19.73;100.00;98992.34;4173131;28;20049;-74
2023/08/20 04:52:21;;;;;;;12.15;10.85;;;;;;;19.73;100.00;99006.38;4174251;28;20048;-74
2023/08/20 04:54:22;;;;;;;12.18;10.05;;;;;;;19.72;100.00;99002.78;4173589;28;20881;-74
2023/08/20 04:56:22;;;;;;;12.88;10.88;;;;;;;19.73;100.00;98995.16;4174131;28;20056;-74
2023/08/20 04:58:22;;;;;;;11.88;10.27;;;;;;;19.76;100.00;98992.28;4174282;28;20041;-74
2023/08/20 05:00:23;;;;;;;13.38;11.65;;;;;;;19.80;100.00;99003.47;4173645;28;20071;-74
2023/08/20 05:02:23;;;;;;;11.82;9.60;;;;;;;19.81;100.00;98999.44;4173363;28;20447;-74
2023/08/20 05:04:24;;;;;;;12.88;9.85;;;;;;;19.86;100.00;99010.19;4173189;28;20123;-73
2023/08/20 05:06:24;;;;;;;12.35;10.88;;;;;;;19.88;100.00;99016.16;4173545;28;20053;-74
2023/08/20 05:08:24;;;;;;;24.27;11.10;;;;;;;19.90;100.00;99022.13;4173910;28;20045;-74
2023/08/20 05:10:25;;;;;;;13.43;12.00;;;;;;;19.92;100.00;99026.09;4173330;28;20117;-74
2023/08/20 05:12:25;;;;;;;15.82;12.43;;;;;;;19.96;100.00;99026.03;4172966;28;20059;-74
2023/08/20 05:14:25;;;;;;;12.85;11.50;;;;;;;20.02;100.00;99029.13;4173510;28;20037;-73
2023/08/20 05:16:25;;;;;;;15.45;12.15;;;;;;;20.08;100.00;99033.84;4173651;28;20057;-74
2023/08/20 05:18:26;;;;;;;14.45;11.18;;;;;;;20.15;100.00;99030.13;4169774;28;20120;-74
2023/08/20 05:20:27;;;;;;;19.33;12.45;;;;;;;20.23;100.00;99025.16;4171642;28;20102;-74
2023/08/20 05:22:27;;;;;;;13.98;11.52;;;;;;;20.30;100.00;99020.19;4172648;28;20044;-74
2023/08/20 05:24:27;;;;;;;15.10;11.23;;;;;;;20.38;100.00;99026.47;4171863;28;20520;-74
2023/08/20 05:26:28;;;;;;;16.05;11.85;;;;;;;20.44;100.00;99030.41;4172790;28;20060;-74
2023/08/20 05:28:28;;;;;;;18.88;11.93;;;;;;;20.53;100.00;99029.84;4173306;28;20073;-74
2023/08/20 05:30:28;;;;;;;18.77;12.75;;;;;;;20.56;100.00;99028.97;4172337;28;20049;-74
2023/08/20 05:32:29;;;;;;;18.85;13.05;;;;;;;20.60;100.00;99038.09;4171525;28;20049;-74
2023/08/20 05:34:29;;;;;;;14.98;11.93;;;;;;;20.65;100.00;99020.75;4172970;28;20045;-74
2023/08/20 05:36:29;;;;;;;19.50;12.65;;;;;;;20.68;100.00;99033.94;4171882;28;20389;-74
2023/08/20 05:38:30;;;;;;;15.20;13.60;;;;;;;20.72;100.00;99037.47;4173068;28;20402;-74
2023/08/20 05:40:30;;;;;;;17.67;12.93;;;;;;;20.75;100.00;99045.03;4173062;28;20099;-74
2023/08/20 05:42:30;;;;;;;19.02;13.30;;;;;;;20.78;100.00;99043.41;4172330;28;20075;-74
2023/08/20 05:44:31;;;;;;;16.73;13.10;;;;;;;20.84;100.00;99044.44;4172900;28;20048;-74
2023/08/20 05:46:31;;;;;;;23.30;13.82;;;;;;;20.87;100.00;99046.41;4174215;28;20804;-74
2023/08/20 05:48:31;;;;;;;21.17;14.57;;;;;;;20.88;100.00;99048.78;4172502;28;20037;-74
2023/08/20 05:50:32;;;;;;;19.77;13.15;;;;;;;20.87;100.00;99046.41;4172665;28;20128;-74
2023/08/20 05:52:32;;;;;;;17.77;13.95;;;;;;;20.90;100.00;99051.94;4172457;28;20041;-74
2023/08/20 05:54:32;;;;;;;14.85;12.38;;;;;;;20.89;100.00;99043.94;4171928;28;20075;-74
2023/08/20 05:56:33;;;;;;;17.70;12.30;;;;;;;20.97;100.00;99051.81;4172765;28;20048;-74
2023/08/20 05:58:34;;;;;;;14.88;13.30;;;;;;;21.03;100.00;99043.66;4172302;28;20069;-74
2023/08/20 06:00:34;;;;;;;16.58;13.02;;;;;;;21.16;100.00;99057.81;4171144;28;20234;-74
2023/08/20 06:02:35;;;;;;;17.02;13.02;;;;;;;21.20;100.00;99048.09;4171046;28;20166;-74
2023/08/20 06:04:35;;;;;;;18.10;13.30;;;;;;;21.24;100.00;99045.97;4171654;28;20504;-74
2023/08/20 06:06:35;;;;;;;15.80;11.65;;;;;;;21.30;100.00;99049.09;4171589;28;20552;-74
2023/08/20 06:08:36;;;;;;;13.98;12.63;;;;;;;21.37;100.00;99050.97;4171798;28;20041;-74
2023/08/20 06:10:36;;;;;;;13.90;11.98;;;;;;;21.49;100.00;99055.91;4172428;28;20195;-74
2023/08/20 06:12:36;;;;;;;17.17;12.88;;;;;;;21.49;100.00;99053.88;4171854;28;20447;-74
2023/08/20 06:14:37;;;;;;;14.00;12.48;;;;;;;21.53;100.00;99060.22;4172177;28;21013;-74
2023/08/20 06:16:37;;;;;;;14.20;12.35;;;;;;;21.59;100.00;99085.81;4172481;28;20156;-74
2023/08/20 06:18:37;;;;;;;15.88;12.50;;;;;;;21.62;100.00;99089.81;4172380;28;20076;-74
2023/08/20 06:20:38;;;;;;;15.35;12.10;;;;;;;21.58;100.00;99084.25;4172594;28;20049;-73
2023/08/20 06:22:38;;;;;;;13.73;12.18;;;;;;;21.59;100.00;99080.97;4171866;28;20067;-74
2023/08/20 06:24:38;;;;;;;15.70;12.00;;;;;;;21.58;100.00;99078.59;4172556;28;20052;-74
2023/08/20 06:26:39;;;;;;;13.60;11.23;;;;;;;21.62;100.00;99084.19;4172680;28;20082;-74
2023/08/20 06:28:39;;;;;;;14.15;11.60;;;;;;;21.60;100.00;99067.72;4172170;28;20056;-74
2023/08/20 06:30:39;;;;;;;14.88;12.20;;;;;;;21.56;100.00;99073.44;4172232;28;20056;-74
2023/08/20 06:32:40;;;;;;;13.07;11.77;;;;;;;21.62;100.00;99082.16;4171423;28;20076;-74
2023/08/20 06:34:40;;;;;;;12.88;11.50;;;;;;;21.65;100.00;99081.25;4146753;28;20057;-74
2023/08/20 06:36:41;;;;;;;14.27;10.80;;;;;;;21.67;100.00;99075.97;4198809;28;20037;-74
2023/08/20 06:38:41;;;;;;;11.20;9.88;;;;;;;21.67;100.00;99073.16;4170692;28;20135;-74
2023/08/20 06:40:41;;;;;;;11.43;10.15;;;;;;;21.75;100.00;99085.84;4171778;28;20094;-74
2023/08/20 06:42:42;;;;;;;13.48;11.27;;;;;;;21.79;100.00;99080.94;4170103;28;20049;-74
2023/08/20 06:44:42;;;;;;;12.93;11.25;;;;;;;21.81;100.00;99077.66;4171847;28;20048;-74
2023/08/20 06:46:42;;;;;;;13.27;10.38;;;;;;;21.84;100.00;99071.13;4165760;28;20187;-74
2023/08/20 06:48:43;;;;;;;14.23;10.75;;;;;;;21.91;100.00;99079.41;4174031;28;20076;-74
2023/08/20 06:50:43;;;;;;;12.02;10.50;;;;;;;21.95;100.00;99079.34;4175948;28;20045;-74
2023/08/20 06:52:43;;;;;;;12.07;10.10;;;;;;;22.05;100.00;99079.06;4176902;28;20099;-74
2023/08/20 06:54:44;;;;;;;12.93;11.57;;;;;;;22.09;100.00;99084.63;4174422;28;20041;-74
2023/08/20 06:56:45;;;;;;;10.93;9.75;;;;;;;22.14;100.00;99095.38;4174912;28;20076;-74
2023/08/20 06:58:45;;;;;;;10.25;9.13;;;;;;;22.21;100.00;99091.59;4176333;28;20480;-74
2023/08/20 07:00:46;;;;;;;13.82;10.43;;;;;;;22.22;100.00;99085.53;4175582;28;20041;-74
2023/08/20 07:02:46;;;;;;;10.95;8.60;;;;;;;22.31;100.00;99098.97;4176023;28;20056;-74
2023/08/20 07:04:46;;;;;;;10.68;8.93;;;;;;;22.37;100.00;99100.81;4176519;28;20410;-74
2023/08/20 07:06:47;;;;;;;10.55;8.45;;;;;;;22.41;100.00;99095.09;4176411;28;20057;-74
2023/08/20 07:08:47;;;;;;;16.70;9.70;;;;;;;22.43;100.00;99093.44;4176907;28;20405;-74
2023/08/20 07:10:48;;;;;;;12.05;9.05;;;;;;;22.49;100.00;99101.31;4176688;28;20049;-74
2023/08/20 07:12:48;;;;;;;10.55;9.10;;;;;;;22.57;100.00;99111.97;4176749;28;20044;-74
2023/08/20 07:14:48;;;;;;;10.95;8.48;;;;;;;22.65;100.00;99112.56;4177165;28;20128;-74
2023/08/20 07:16:48;;;;;;;12.15;8.48;;;;;;;22.71;100.00;99108.75;4161502;28;20073;-74
2023/08/20 07:18:49;;;;;;;13.80;8.88;;;;;;;22.83;100.00;99112.06;4177070;28;20408;-74
2023/08/20 07:20:51;;;;;;;11.73;9.00;;;;;;;22.87;100.00;99112.81;4177228;28;20517;-74
2023/08/20 07:22:51;;;;;;;12.07;9.15;;;;;;;22.91;100.00;99111.44;4177003;28;20053;-74
2023/08/20 07:24:51;;;;;;;12.55;9.75;;;;;;;22.93;100.00;99120.28;4178057;28;20138;-74
2023/08/20 07:26:52;;;;;;;11.35;8.77;;;;;;;22.97;100.00;99123.78;4177905;28;20053;-74
2023/08/20 07:28:59;;;;;;;13.40;8.68;;;;;;;23.02;100.00;99116.03;4177212;28;20317;-74
2023/08/20 07:30:59;;;;;;;13.25;8.68;;;;;;;23.07;100.00;99116.25;4177512;28;20033;-74
2023/08/20 07:33:00;;;;;;;11.82;8.60;;;;;;;23.09;100.00;99119.44;4177033;28;20091;-74
2023/08/20 07:35:00;;;;;;;11.25;7.97;;;;;;;23.17;100.00;99122.81;4177549;28;20436;-74
2023/08/20 07:37:02;;;;;;;9.95;8.90;;;;;;;23.15;100.00;99136.59;4177635;28;20542;-74
2023/08/20 07:39:03;;;;;;;12.57;8.77;;;;;;;23.10;100.00;99137.16;4177255;28;20045;-74
2023/08/20 07:41:03;;;;;;;13.52;9.48;;;;;;;23.08;100.00;99131.16;4177369;28;20037;-74
2023/08/20 07:43:03;;;;;;;8.85;7.60;;;;;;;23.08;100.00;99137.56;4176742;28;20052;-74
2023/08/20 07:45:04;;;;;;;10.70;8.55;;;;;;;23.07;100.00;99136.00;4177074;28;20052;-74
2023/08/20 07:47:04;;;;;;;9.00;7.82;;;;;;;23.04;100.00;99133.28;4177129;28;20061;-73
2023/08/20 07:49:05;;;;;;;10.10;8.48;;;;;;;23.05;100.00;99132.84;4177338;28;20057;-74
2023/08/20 07:51:06;;;;;;;10.13;8.45;;;;;;;23.06;100.00;99131.59;4177583;28;20281;-74
2023/08/20 07:53:06;;;;;;;9.90;8.35;;;;;;;23.10;100.00;99128.69;4175702;28;20053;-74
2023/08/20 07:55:07;;;;;;;12.80;8.90;;;;;;;23.12;100.00;99137.50;4177591;28;20090;-74
2023/08/20 07:57:07;;;;;;;11.90;9.07;;;;;;;23.13;100.00;99134.22;4176992;28;20122;-74
2023/08/20 07:59:08;;;;;;;9.77;8.23;;;;;;;23.13;100.00;99133.44;4177063;28;20072;-74
2023/08/20 08:01:08;;;;;;;12.05;8.63;;;;;;;23.13;100.00;99133.44;4173845;28;20037;-74
2023/08/20 08:03:09;;;;;;;13.43;9.85;;;;;;;23.11;100.00;99133.88;4173993;28;20395;-74
2023/08/20 08:05:10;;;;;;;11.57;9.40;;;;;;;23.03;100.00;99140.19;4174808;28;20045;-74
2023/08/20 08:07:11;;;;;;;11.65;8.85;;;;;;;22.95;100.00;99137.56;4174385;28;20055;-74
2023/08/20 08:09:21;;;;;;;10.60;9.55;;;;;;;22.88;100.00;99136.97;4173520;28;20049;-74
2023/08/20 08:11:22;;;;;;;13.02;9.60;;;;;;;22.81;100.00;99145.59;4174975;28;20092;-73
2023/08/20 08:13:23;;;;;;;13.52;8.93;;;;;;;22.78;100.00;99146.47;4173247;28;20053;-74
2023/08/20 08:15:23;;;;;;;10.98;9.85;;;;;;;22.69;100.00;99149.94;4174971;28;20049;-74
2023/08/20 08:17:24;;;;;;;13.02;10.15;;;;;;;22.66;100.00;99145.97;4174660;28;20048;-73
2023/08/20 08:19:24;;;;;;;14.57;9.75;;;;;;;22.63;100.00;99149.69;4174676;28;20246;-74
2023/08/20 08:21:24;;;;;;;14.18;10.65;;;;;;;22.59;100.00;99148.19;4174018;28;20055;-74
2023/08/20 08:23:25;;;;;;;13.10;10.73;;;;;;;22.58;100.00;99143.78;4173869;28;20049;-74
2023/08/20 08:25:25;;;;;;;14.93;10.80;;;;;;;22.56;100.00;99149.88;4174188;28;20052;-74
2023/08/20 08:27:25;;;;;;;12.82;10.60;;;;;;;22.54;100.00;99148.72;4174174;28;20056;-74
2023/08/20 08:29:26;;;;;;;13.73;11.48;;;;;;;22.55;100.00;99153.94;4174571;28;20076;-74
2023/08/20 08:31:26;;;;;;;15.15;12.35;;;;;;;22.52;100.00;99149.19;4173990;28;20060;-74
2023/08/20 08:33:27;;;;;;;14.93;11.80;;;;;;;22.45;100.00;99154.22;4173338;28;20118;-74
2023/08/20 08:35:27;;;;;;;13.02;11.30;;;;;;;22.46;100.00;99155.78;4174455;28;20045;-74
2023/08/20 08:37:27;;;;;;;17.05;13.95;;;;;;;22.38;100.00;99155.97;4174346;28;20048;-74
2023/08/20 08:39:28;;;;;;;15.20;12.32;;;;;;;22.35;100.00;99150.44;4174205;28;20098;-74
2023/08/20 08:41:30;;;;;;;16.17;12.73;;;;;;;22.33;100.00;99153.66;4174170;28;20060;-74
2023/08/20 08:43:31;;;;;;;15.15;13.27;;;;;;;22.33;100.00;99148.03;4173843;28;20128;-74
2023/08/20 08:45:32;;;;;;;23.60;12.88;;;;;;;22.33;100.00;99147.25;4174025;28;20207;-74
2023/08/20 08:47:34;;;;;;;18.88;13.43;;;;;;;22.29;100.00;99143.75;4174271;28;20068;-74
2023/08/20 08:49:34;;;;;;;13.75;12.35;;;;;;;22.30;100.00;99150.97;4174212;28;20048;-74
2023/08/20 08:51:36;;;;;;;14.80;12.88;;;;;;;22.31;100.00;99144.09;4173286;28;20401;-74
2023/08/20 08:53:37;;;;;;;15.75;13.20;;;;;;;22.32;100.00;99146.44;4173400;28;20037;-74
2023/08/20 08:55:37;;;;;;;16.90;14.50;;;;;;;22.25;100.00;99146.63;4173830;28;20289;-74
2023/08/20 08:57:38;;;;;;;18.10;14.35;;;;;;;22.25;100.00;99145.84;4173704;28;20132;-74
2023/08/20 08:59:39;;;;;;;15.98;13.85;;;;;;;22.27;100.00;99149.81;4174087;28;20095;-74
2023/08/20 09:01:40;;;;;;;16.38;14.75;;;;;;;22.32;100.00;99152.09;4173355;28;20477;-74
2023/08/20 09:03:41;;;;;;;16.27;14.57;;;;;;;22.31;100.00;99150.50;4173412;28;20053;-74
2023/08/20 09:05:47;;;;;;;16.70;14.85;;;;;;;22.36;100.00;99152.81;4173969;28;20047;-74
2023/08/20 09:07:55;;;;;;;17.08;15.25;;;;;;;22.37;100.00;99150.78;4173834;28;20055;-74
2023/08/20 09:10:01;;;;;;;18.42;15.52;;;;;;;22.40;100.00;99150.69;4173529;28;20430;-74
2023/08/20 09:12:12;;;;;;;20.60;16.17;;;;;;;22.38;100.00;99153.16;4172088;28;20087;-75